createdAt,value
2019-03-08T00:01:47.473Z,7.20
2019-03-08T00:04:16.725Z,6.57
2019-03-08T00:06:45.965Z,5.97
2019-03-08T00:09:16.666Z,5.23
2019-03-08T00:11:48.434Z,5.43
2019-03-08T00:14:21.752Z,5.10
2019-03-08T00:16:50.967Z,4.87
2019-03-08T00:19:23.844Z,4.73
2019-03-08T00:21:53.511Z,5.67
2019-03-08T00:24:22.870Z,5.00
2019-03-08T00:26:53.297Z,5.07
2019-03-08T00:29:22.585Z,5.03
2019-03-08T00:31:52.146Z,4.93
2019-03-08T00:34:22.301Z,5.40
2019-03-08T00:36:54.109Z,5.63
2019-03-08T00:39:23.415Z,5.77
2019-03-08T00:41:56.540Z,4.97
2019-03-08T00:44:25.769Z,4.73
2019-03-08T00:46:54.828Z,5.20
2019-03-08T00:49:27.678Z,4.63
2019-03-08T00:51:58.416Z,4.50
2019-03-08T00:54:28.074Z,4.53
2019-03-08T00:56:57.293Z,4.40
2019-03-08T00:59:26.555Z,4.53
2019-03-08T01:01:55.953Z,4.30
2019-03-08T01:04:27.569Z,3.97
2019-03-08T01:06:58.250Z,4.13
2019-03-08T01:09:36.469Z,4.93
2019-03-08T01:12:05.841Z,4.23
2019-03-08T01:14:35.941Z,4.07
2019-03-08T01:17:05.082Z,4.07
2019-03-08T01:19:37.777Z,4.30
2019-03-08T01:22:07.007Z,3.50
2019-03-08T01:24:37.644Z,3.63
2019-03-08T01:27:07.899Z,3.80
2019-03-08T01:29:37.242Z,3.23
2019-03-08T01:32:06.877Z,3.17
2019-03-08T01:34:36.817Z,4.13
2019-03-08T01:37:06.053Z,2.83
2019-03-08T01:39:35.326Z,2.83
2019-03-08T01:42:13.598Z,3.60
2019-03-08T01:44:43.445Z,2.93
2019-03-08T01:47:13.807Z,3.77
2019-03-08T01:49:43.074Z,5.07
2019-03-08T01:52:12.300Z,5.03
2019-03-08T01:54:41.883Z,3.00
2019-03-08T01:57:12.284Z,2.83
2019-03-08T01:59:42.852Z,2.60
2019-03-08T02:02:14.536Z,2.80
2019-03-08T02:04:47.457Z,3.50
2019-03-08T02:07:21.499Z,3.17
2019-03-08T02:09:51.816Z,3.00
2019-03-08T02:12:22.987Z,3.10
2019-03-08T02:14:53.593Z,3.30
2019-03-08T02:17:22.834Z,3.67
2019-03-08T02:19:57.139Z,4.03
2019-03-08T02:22:26.523Z,3.17
2019-03-08T02:24:56.872Z,3.00
2019-03-08T02:27:25.921Z,3.37
2019-03-08T02:29:55.432Z,4.03
2019-03-08T02:32:24.939Z,3.23
2019-03-08T02:34:54.638Z,3.13
2019-03-08T02:37:23.865Z,3.10
2019-03-08T02:39:54.721Z,3.63
2019-03-08T02:42:24.464Z,3.50
2019-03-08T02:44:58.224Z,3.10
2019-03-08T02:47:29.599Z,3.40
2019-03-08T02:50:01.212Z,3.07
2019-03-08T02:52:31.519Z,3.17
2019-03-08T02:55:02.215Z,2.83
2019-03-08T02:57:32.701Z,3.13
2019-03-08T03:00:02.312Z,2.90
2019-03-08T03:02:31.870Z,2.50
2019-03-08T03:05:02.793Z,2.97
2019-03-08T03:07:32.497Z,2.97
2019-03-08T03:10:03.299Z,2.70
2019-03-08T03:12:32.519Z,3.10
2019-03-08T03:15:01.800Z,2.40
2019-03-08T03:17:31.033Z,2.77
2019-03-08T03:20:00.574Z,2.77
2019-03-08T03:22:30.863Z,2.30
2019-03-08T03:25:02.242Z,2.67
2019-03-08T03:27:40.010Z,2.73
2019-03-08T03:30:14.136Z,2.90
2019-03-08T03:32:45.513Z,2.70
2019-03-08T03:35:17.713Z,2.47
2019-03-08T03:37:47.712Z,2.60
2019-03-08T03:40:17.000Z,2.40
2019-03-08T03:42:49.667Z,2.80
2019-03-08T03:45:19.887Z,2.53
2019-03-08T03:47:51.256Z,2.47
2019-03-08T03:50:21.055Z,2.53
2019-03-08T03:52:51.477Z,2.77
2019-03-08T03:55:20.724Z,2.30
2019-03-08T03:57:52.881Z,2.47
2019-03-08T04:00:22.426Z,2.40
2019-03-08T04:02:52.988Z,2.30
2019-03-08T04:05:24.699Z,2.33
2019-03-08T04:07:54.852Z,2.23
2019-03-08T04:10:24.824Z,2.60
2019-03-08T04:12:57.000Z,3.10
2019-03-08T04:15:27.561Z,1.93
2019-03-08T04:17:57.985Z,2.57
2019-03-08T04:20:36.094Z,2.23
2019-03-08T04:23:05.305Z,2.30
2019-03-08T04:25:35.618Z,2.20
2019-03-08T04:28:05.666Z,2.90
2019-03-08T04:30:35.754Z,2.00
2019-03-08T04:33:10.477Z,2.13
2019-03-08T04:35:39.965Z,2.63
2019-03-08T04:38:09.215Z,2.40
2019-03-08T04:40:42.878Z,2.73
2019-03-08T04:43:14.607Z,3.13
2019-03-08T04:45:44.199Z,2.80
2019-03-08T04:48:13.448Z,2.50
2019-03-08T04:50:42.971Z,2.60
2019-03-08T04:53:14.677Z,2.73
2019-03-08T04:55:43.929Z,2.20
2019-03-08T04:58:13.186Z,3.40
2019-03-08T05:00:42.877Z,2.37
2019-03-08T05:03:12.382Z,2.47
2019-03-08T05:05:41.908Z,3.13
2019-03-08T05:08:13.756Z,2.70
2019-03-08T05:10:45.408Z,1.90
2019-03-08T05:13:14.669Z,2.40
2019-03-08T05:15:46.612Z,2.37
2019-03-08T05:18:15.892Z,2.20
2019-03-08T05:20:46.070Z,2.50
2019-03-08T05:23:17.462Z,3.13
2019-03-08T05:25:46.983Z,2.43
2019-03-08T05:28:16.219Z,1.60
2019-03-08T05:30:45.845Z,1.60
2019-03-08T05:33:17.164Z,1.30
2019-03-08T05:35:46.389Z,1.63
2019-03-08T05:38:16.442Z,2.13
2019-03-08T05:40:46.255Z,2.27
2019-03-08T05:43:20.946Z,8.63
2019-03-08T05:45:50.442Z,1.50
2019-03-08T05:48:19.694Z,1.50
2019-03-08T05:50:51.491Z,2.90
2019-03-08T05:53:22.269Z,2.27
2019-03-08T05:55:51.885Z,2.47
2019-03-08T05:58:22.255Z,1.70
2019-03-08T06:00:51.819Z,1.80
2019-03-08T06:03:21.631Z,1.93
2019-03-08T06:05:52.017Z,2.47
2019-03-08T06:08:21.614Z,2.50
2019-03-08T06:10:51.117Z,2.53
2019-03-08T06:13:20.565Z,2.50
2019-03-08T06:15:50.990Z,1.50
2019-03-08T06:18:21.230Z,1.70
2019-03-08T06:20:50.714Z,3.23
2019-03-08T06:23:20.850Z,1.53
2019-03-08T06:25:50.086Z,1.70
2019-03-08T06:28:23.005Z,1.67
2019-03-08T06:30:52.234Z,3.03
2019-03-08T06:33:23.390Z,1.40
2019-03-08T06:35:55.940Z,1.57
2019-03-08T06:38:25.925Z,1.50
2019-03-08T06:40:58.254Z,2.20
2019-03-08T06:43:31.457Z,2.13
2019-03-08T06:46:03.006Z,2.27
2019-03-08T06:48:34.820Z,1.43
2019-03-08T06:51:05.292Z,1.93
2019-03-08T06:53:34.527Z,3.03
2019-03-08T06:56:04.094Z,1.20
2019-03-08T06:58:58.174Z,1.40
2019-03-08T07:01:33.508Z,1.20
2019-03-08T07:04:04.721Z,1.37
2019-03-08T07:06:34.251Z,2.93
2019-03-08T07:09:05.552Z,2.10
2019-03-08T07:11:36.564Z,1.53
2019-03-08T07:14:05.913Z,3.10
2019-03-08T07:16:37.123Z,2.40
2019-03-08T07:19:07.262Z,1.57
2019-03-08T07:21:52.393Z,1.40
2019-03-08T07:24:48.561Z,1.67
2019-03-08T07:27:39.549Z,1.40
2019-03-08T07:30:28.339Z,1.67
2019-03-08T07:33:28.387Z,3.93
2019-03-08T07:36:19.423Z,2.10
2019-03-08T07:39:13.427Z,2.17
2019-03-08T07:41:52.948Z,1.73
2019-03-08T07:44:53.192Z,1.90
2019-03-08T07:47:56.510Z,3.03
2019-03-08T07:50:44.154Z,1.50
2019-03-08T07:53:44.429Z,1.60
2019-03-08T07:56:39.494Z,1.37
2019-03-08T07:59:26.328Z,1.70
2019-03-08T08:02:10.107Z,2.37
2019-03-08T08:04:49.067Z,1.43
2019-03-08T08:07:42.407Z,1.83
2019-03-08T08:10:37.727Z,4.00
2019-03-08T08:13:20.978Z,1.47
2019-03-08T08:16:20.313Z,1.30
2019-03-08T08:19:16.052Z,2.60
2019-03-08T08:22:04.295Z,2.00
2019-03-08T08:24:52.489Z,1.93
2019-03-08T08:27:40.664Z,1.03
2019-03-08T08:30:22.308Z,1.40
2019-03-08T08:33:13.864Z,1.33
2019-03-08T08:35:51.981Z,0.90
2019-03-08T08:38:35.453Z,1.57
2019-03-08T08:41:21.187Z,7.17
2019-03-08T08:44:16.315Z,1.60
2019-03-08T08:47:07.995Z,2.37
2019-03-08T08:49:54.618Z,0.97
2019-03-08T08:52:43.970Z,2.47
2019-03-08T08:55:28.195Z,2.17
2019-03-08T08:58:34.393Z,1.03
2019-03-08T09:01:28.299Z,1.53
2019-03-08T09:04:16.954Z,1.00
2019-03-08T09:07:07.422Z,1.60
2019-03-08T09:10:01.398Z,2.20
2019-03-08T09:12:59.380Z,2.20
2019-03-08T09:15:46.208Z,1.50
2019-03-08T09:18:34.491Z,1.47
2019-03-08T09:21:12.647Z,1.33
2019-03-08T09:23:53.883Z,1.40
2019-03-08T09:26:56.929Z,1.70
2019-03-08T09:29:41.629Z,1.20
2019-03-08T09:32:30.391Z,1.97
2019-03-08T09:35:09.344Z,1.43
2019-03-08T09:38:17.485Z,1.37
2019-03-08T09:41:08.710Z,1.10
2019-03-08T09:44:14.074Z,1.30
2019-03-08T09:47:16.155Z,1.07
2019-03-08T09:50:02.982Z,1.10
2019-03-08T09:52:48.612Z,1.13
2019-03-08T09:55:35.556Z,1.77
2019-03-08T09:58:32.308Z,0.90
2019-03-08T10:01:17.300Z,0.93
2019-03-08T10:04:13.433Z,1.03
2019-03-08T10:07:13.894Z,1.07
2019-03-08T10:10:08.282Z,1.23
2019-03-08T10:12:43.850Z,0.87
2019-03-08T10:15:31.099Z,1.63
2019-03-08T10:18:22.057Z,1.40
2019-03-08T10:21:06.998Z,1.20
2019-03-08T10:23:46.879Z,1.37
2019-03-08T10:26:51.218Z,1.33
2019-03-08T10:29:36.744Z,2.30
2019-03-08T10:32:24.906Z,1.87
2019-03-08T10:35:20.498Z,1.17
2019-03-08T10:37:51.747Z,1.30
2019-03-08T10:40:44.704Z,1.30
2019-03-08T10:43:32.566Z,1.43
2019-03-08T10:46:19.452Z,1.20
2019-03-08T10:49:09.234Z,1.53
2019-03-08T10:51:50.953Z,1.20
2019-03-08T10:54:40.959Z,1.10
2019-03-08T10:57:17.855Z,1.57
2019-03-08T11:00:13.838Z,2.13
2019-03-08T11:02:54.289Z,1.00
2019-03-08T11:05:54.507Z,1.13
2019-03-08T11:09:02.662Z,1.30
2019-03-08T11:12:06.163Z,1.07
2019-03-08T11:14:54.139Z,1.17
2019-03-08T11:17:50.687Z,0.90
2019-03-08T11:20:27.257Z,1.53
2019-03-08T11:23:21.149Z,1.00
2019-03-08T11:26:09.842Z,1.90
2019-03-08T11:29:14.865Z,1.03
2019-03-08T11:32:03.792Z,2.13
2019-03-08T11:35:22.071Z,0.80
2019-03-08T11:38:07.129Z,1.13
2019-03-08T11:40:55.419Z,0.77
2019-03-08T11:43:48.249Z,0.80
2019-03-08T11:46:56.113Z,1.13
2019-03-08T11:49:37.895Z,0.90
2019-03-08T11:52:32.778Z,1.33
2019-03-08T11:55:24.352Z,1.53
2019-03-08T11:58:16.859Z,1.07
2019-03-08T12:01:12.382Z,2.30
2019-03-08T12:04:00.941Z,0.83
2019-03-08T12:06:43.131Z,1.20
2019-03-08T12:09:41.139Z,1.30
2019-03-08T12:12:32.400Z,0.70
2019-03-08T12:15:21.567Z,0.90
2019-03-08T12:18:19.780Z,1.27
2019-03-08T12:21:08.327Z,1.50
2019-03-08T12:23:55.281Z,0.93
2019-03-08T12:26:46.211Z,2.00
2019-03-08T12:29:34.070Z,2.10
2019-03-08T12:32:23.612Z,2.77
2019-03-08T12:35:12.191Z,0.50
2019-03-08T12:37:57.759Z,0.70
2019-03-08T12:40:35.701Z,2.33
2019-03-08T12:43:25.082Z,0.83
2019-03-08T12:46:14.170Z,0.70
2019-03-08T12:49:18.726Z,2.00
2019-03-08T12:51:56.635Z,1.27
2019-03-08T12:54:56.343Z,0.93
2019-03-08T12:57:51.679Z,1.47
2019-03-08T13:00:38.636Z,1.30
2019-03-08T13:03:25.338Z,2.23
2019-03-08T13:06:17.758Z,0.70
2019-03-08T13:09:08.731Z,0.77
2019-03-08T13:11:38.253Z,1.43
2019-03-08T13:14:07.798Z,1.73
2019-03-08T13:16:37.912Z,2.07
2019-03-08T13:19:10.298Z,0.83
2019-03-08T13:21:41.654Z,1.90
2019-03-08T13:24:12.645Z,1.07
2019-03-08T13:26:44.987Z,1.83
2019-03-08T13:29:14.235Z,0.90
2019-03-08T13:31:43.491Z,1.90
2019-03-08T13:34:17.493Z,0.97
2019-03-08T13:36:48.035Z,1.43
2019-03-08T13:39:18.954Z,1.33
2019-03-08T13:41:48.218Z,0.60
2019-03-08T13:44:21.328Z,1.97
2019-03-08T13:46:50.596Z,1.80
2019-03-08T13:49:21.408Z,1.60
2019-03-08T13:51:52.429Z,1.00
2019-03-08T13:54:21.666Z,1.67
2019-03-08T13:56:52.505Z,3.43
2019-03-08T13:59:23.677Z,1.30
2019-03-08T14:02:00.435Z,1.37
2019-03-08T14:04:30.098Z,1.77
2019-03-08T14:06:59.739Z,1.43
2019-03-08T14:09:31.850Z,1.50
2019-03-08T14:12:01.917Z,1.10
2019-03-08T14:14:31.349Z,2.53
2019-03-08T14:17:00.905Z,1.60
2019-03-08T14:19:33.777Z,1.20
2019-03-08T14:22:03.278Z,2.70
2019-03-08T14:24:32.777Z,2.53
2019-03-08T14:27:04.314Z,0.90
2019-03-08T14:29:36.445Z,2.23
2019-03-08T14:32:27.442Z,2.83
2019-03-08T14:34:58.122Z,1.30
2019-03-08T14:37:27.370Z,1.27
2019-03-08T14:39:56.861Z,1.93
2019-03-08T14:42:40.323Z,1.87
2019-03-08T14:45:17.871Z,1.10
2019-03-08T14:47:51.674Z,1.70
2019-03-08T14:50:23.655Z,1.23
2019-03-08T14:52:56.682Z,1.13
2019-03-08T14:55:27.772Z,1.20
2019-03-08T14:57:58.979Z,1.00
2019-03-08T15:00:30.545Z,2.87
2019-03-08T15:03:02.634Z,1.80
2019-03-08T15:05:32.188Z,2.37
2019-03-08T15:08:01.727Z,1.33
2019-03-08T15:10:39.411Z,2.27
2019-03-08T15:13:06.841Z,0.97
2019-03-08T15:15:44.123Z,1.77
2019-03-08T15:18:14.802Z,1.33
2019-03-08T15:20:44.866Z,1.13
2019-03-08T15:23:20.405Z,1.20
2019-03-08T15:25:51.873Z,1.37
2019-03-08T15:28:21.158Z,2.10
2019-03-08T15:30:51.363Z,1.73
2019-03-08T15:33:20.913Z,0.60
2019-03-08T15:35:51.826Z,3.00
2019-03-08T15:38:22.697Z,1.63
2019-03-08T15:40:51.973Z,0.77
2019-03-08T15:43:22.368Z,3.13
2019-03-08T15:45:54.397Z,1.47
2019-03-08T15:48:24.012Z,2.30
2019-03-08T15:50:56.565Z,1.70
2019-03-08T15:53:26.120Z,1.50
2019-03-08T15:55:59.931Z,2.47
2019-03-08T15:58:30.866Z,2.53
2019-03-08T16:01:02.044Z,2.00
2019-03-08T16:03:33.855Z,2.30
2019-03-08T16:06:06.434Z,2.60
2019-03-08T16:08:39.761Z,2.97
2019-03-08T16:11:09.715Z,2.60
2019-03-08T16:13:52.169Z,2.27
2019-03-08T16:16:21.820Z,2.60
2019-03-08T16:18:52.179Z,1.23
2019-03-08T16:21:21.446Z,1.97
2019-03-08T16:23:51.829Z,1.33
2019-03-08T16:26:25.366Z,2.93
2019-03-08T16:28:57.719Z,2.90
2019-03-08T16:31:48.964Z,2.33
2019-03-08T16:34:24.447Z,1.40
2019-03-08T16:36:58.815Z,1.80
2019-03-08T16:39:34.950Z,1.80
2019-03-08T16:42:21.218Z,4.60
2019-03-08T16:45:08.119Z,2.90
2019-03-08T16:47:54.800Z,1.87
2019-03-08T16:50:56.236Z,1.30
2019-03-08T16:53:47.892Z,2.20
2019-03-08T16:56:44.482Z,1.63
2019-03-08T16:59:43.275Z,2.23
2019-03-08T17:02:32.367Z,3.00
2019-03-08T17:05:21.571Z,2.83
2019-03-08T17:07:59.763Z,2.83
2019-03-08T17:10:48.302Z,2.03
2019-03-08T17:13:53.542Z,1.97
2019-03-08T17:16:42.976Z,1.70
2019-03-08T17:19:30.688Z,1.17
2019-03-08T17:22:19.153Z,1.53
2019-03-08T17:25:10.570Z,1.93
2019-03-08T17:28:02.407Z,1.10
2019-03-08T17:30:46.937Z,1.40
2019-03-08T17:33:31.164Z,1.00
2019-03-08T17:36:32.540Z,0.83
2019-03-08T17:39:20.735Z,2.03
2019-03-08T17:42:12.221Z,1.57
2019-03-08T17:44:56.880Z,2.17
2019-03-08T17:47:50.978Z,2.00
2019-03-08T17:50:46.022Z,2.93
2019-03-08T17:53:35.033Z,3.33
2019-03-08T17:56:26.240Z,2.17
2019-03-08T17:59:17.157Z,3.00
2019-03-08T18:02:14.327Z,3.33
2019-03-08T18:05:04.722Z,3.97
2019-03-08T18:08:08.092Z,2.90
2019-03-08T18:11:09.510Z,2.30
2019-03-08T18:13:55.774Z,3.17
2019-03-08T18:16:48.803Z,2.33
2019-03-08T18:19:29.239Z,2.53
2019-03-08T18:22:05.001Z,4.00
2019-03-08T18:24:54.214Z,2.97
2019-03-08T18:27:46.706Z,1.90
2019-03-08T18:30:52.483Z,2.10
2019-03-08T18:33:34.262Z,2.37
2019-03-08T18:36:22.748Z,2.20
2019-03-08T18:39:10.722Z,1.50
2019-03-08T18:42:01.297Z,2.20
2019-03-08T18:44:43.516Z,1.53
2019-03-08T18:47:33.602Z,1.60
2019-03-08T18:50:40.498Z,2.00
2019-03-08T18:53:33.076Z,2.33
2019-03-08T18:56:30.053Z,1.50
2019-03-08T18:59:07.389Z,2.33
2019-03-08T19:01:56.002Z,2.33
2019-03-08T19:04:47.090Z,2.47
2019-03-08T19:07:37.606Z,3.60
2019-03-08T19:10:29.572Z,2.63
2019-03-08T19:13:11.042Z,3.93
2019-03-08T19:15:53.423Z,1.57
2019-03-08T19:18:34.726Z,1.67
2019-03-08T19:21:39.430Z,3.33
2019-03-08T19:24:17.561Z,2.57
2019-03-08T19:27:25.096Z,3.77
2019-03-08T19:30:19.458Z,3.50
2019-03-08T19:33:13.595Z,2.20
2019-03-08T19:36:02.675Z,1.83
2019-03-08T19:38:57.831Z,2.67
2019-03-08T19:41:49.009Z,2.87
2019-03-08T19:44:35.862Z,2.53
2019-03-08T19:47:23.522Z,4.87
2019-03-08T19:50:14.460Z,3.03
2019-03-08T19:53:09.952Z,2.80
2019-03-08T19:55:57.717Z,4.47
2019-03-08T19:58:39.422Z,6.27
2019-03-08T20:01:26.668Z,4.13
2019-03-08T20:04:06.954Z,4.37
2019-03-08T20:06:59.839Z,4.47
2019-03-08T20:09:45.351Z,3.90
2019-03-08T20:12:21.760Z,2.53
2019-03-08T20:15:14.546Z,3.07
2019-03-08T20:18:07.127Z,3.37
2019-03-08T20:20:59.251Z,3.30
2019-03-08T20:23:44.037Z,2.73
2019-03-08T20:26:26.027Z,3.60
2019-03-08T20:29:14.251Z,3.43
2019-03-08T20:31:59.527Z,3.57
2019-03-08T20:34:57.002Z,4.07
2019-03-08T20:37:36.271Z,3.07
2019-03-08T20:40:28.267Z,2.90
2019-03-08T20:43:11.172Z,4.13
2019-03-08T20:45:48.030Z,5.73
2019-03-08T20:48:17.810Z,3.53
2019-03-08T20:50:47.086Z,2.73
2019-03-08T20:53:17.786Z,2.30
2019-03-08T20:55:49.926Z,2.50
2019-03-08T20:58:19.466Z,4.03
2019-03-08T21:00:54.104Z,2.63
2019-03-08T21:03:25.177Z,2.97
2019-03-08T21:05:56.685Z,4.03
2019-03-08T21:08:29.786Z,2.83
2019-03-08T21:10:59.993Z,3.70
2019-03-08T21:13:29.598Z,3.10
2019-03-08T21:16:00.434Z,4.97
2019-03-08T21:18:29.946Z,3.57
2019-03-08T21:21:02.178Z,2.83
2019-03-08T21:23:33.481Z,2.97
2019-03-08T21:26:11.458Z,3.20
2019-03-08T21:28:41.704Z,3.20
2019-03-08T21:31:13.092Z,3.97
2019-03-08T21:33:52.543Z,3.77
2019-03-08T21:36:21.820Z,4.40
2019-03-08T21:38:51.387Z,3.30
2019-03-08T21:41:21.446Z,3.77
2019-03-08T21:43:51.035Z,5.70
2019-03-08T21:46:20.295Z,6.83
2019-03-08T21:48:49.917Z,7.53
2019-03-08T21:51:19.656Z,7.17
2019-03-08T21:53:50.868Z,6.10
2019-03-08T21:56:20.132Z,5.23
2019-03-08T21:58:51.424Z,5.43
2019-03-08T22:01:20.713Z,4.80
2019-03-08T22:03:57.335Z,5.87
2019-03-08T22:06:27.291Z,6.03
2019-03-08T22:09:05.373Z,6.67
2019-03-08T22:11:39.812Z,4.47
2019-03-08T22:14:14.566Z,4.00
2019-03-08T22:16:43.843Z,4.33
2019-03-08T22:19:13.206Z,4.77
2019-03-08T22:21:44.825Z,5.57
2019-03-08T22:24:17.898Z,5.23
2019-03-08T22:26:48.154Z,3.97
2019-03-08T22:29:17.387Z,4.23
2019-03-08T22:31:47.711Z,6.50
2019-03-08T22:34:18.437Z,5.07
2019-03-08T22:36:48.474Z,4.97
2019-03-08T22:39:17.906Z,6.33
2019-03-08T22:41:47.481Z,4.57
2019-03-08T22:44:17.120Z,4.60
2019-03-08T22:50:27.492Z,5.83
2019-03-08T22:52:58.695Z,8.60
2019-03-08T22:56:33.989Z,8.40
2019-03-08T22:59:03.224Z,6.73
2019-03-08T23:01:57.365Z,7.07
2019-03-08T23:04:26.910Z,6.07
2019-03-08T23:06:56.176Z,5.47
2019-03-08T23:09:31.107Z,4.30
2019-03-08T23:12:01.472Z,4.57
2019-03-08T23:14:32.995Z,4.07
2019-03-08T23:17:03.080Z,4.23
2019-03-08T23:19:32.537Z,3.83
2019-03-08T23:22:03.211Z,4.23
2019-03-08T23:24:33.787Z,5.43
2019-03-08T23:27:21.983Z,6.17
2019-03-08T23:29:54.723Z,3.93
2019-03-08T23:32:27.442Z,4.20
2019-03-08T23:34:57.029Z,4.53
2019-03-08T23:37:30.569Z,5.40
2019-03-08T23:40:02.562Z,8.67
2019-03-08T23:42:32.258Z,5.47
2019-03-08T23:45:01.502Z,4.67
2019-03-08T23:47:35.166Z,7.20
2019-03-08T23:50:06.939Z,5.57
2019-03-08T23:52:38.806Z,4.50
2019-03-08T23:55:08.959Z,4.67
2019-03-08T23:57:39.751Z,4.73
